Estación Meteorológica Peña el Pijo (Robertgarden) [ 02/03/23 03:40:18 CET ]

Fecha Hora Presion(HPa) Temp (°C) Humedad % Rocio (°C) Viento ( m/s) Direccion Lluvia 1Hora(mm) Lluvia 24H(mm) LLuvia Total(mm)
2012-Nov-08 01:01:12 1015.400 8.0 94 7.1         178.19
2012-Nov-08 02:01:54 1015.100 7.9 95 7.2         178.19
2012-Nov-08 03:03:14 1014.700 7.9 95 7.2         178.19
2012-Nov-08 04:01:12 1014.000 7.8 95 7.0         178.19
2012-Nov-08 05:01:13 1013.600 7.8 95 7.0         178.19
2012-Nov-08 06:01:21 1013.400 7.8 95 7.0         178.19
2012-Nov-08 07:01:19 1012.800 7.6 95 6.8         178.19
2012-Nov-08 08:01:19 1013.300 7.8 95 7.0         178.19
2012-Nov-08 09:01:14 1013.300 8.1 94 7.2         178.19
2012-Nov-08 10:01:17 1012.800 9.4 92 8.1         178.19
2012-Nov-08 11:01:18 1012.700 10.4 89 8.6         178.19
2012-Nov-08 12:01:16 1013.300 11.9 86 9.6         178.19
2012-Nov-08 13:01:14 1012.800 10.9 88 9.0         178.19
2012-Nov-08 14:01:19 1011.000 12.3 87 10.2         178.19
2012-Nov-08 15:01:17 1010.600 12.7 84 10.0         178.19
2012-Nov-08 16:01:17 1010.500 11.5 85 9.1         178.19
2012-Nov-08 17:01:21 1010.800 10.4 90 8.8         178.19
2012-Nov-08 18:01:14 1010.500 9.6 91 8.2         178.19
2012-Nov-08 19:01:15 1010.300 9.2 93 8.1         178.19
2012-Nov-08 20:01:20 1010.400 9.6 94 8.7         178.19
2012-Nov-08 21:01:13 1010.200 9.6 94 8.7         178.19
2012-Nov-08 22:01:13 1011.100 9.6 94 8.7         178.19
2012-Nov-08 23:01:13 1009.900 9.6 94 8.7         178.19

Temperatura Máxima:12°    Temperatura Mínima:
Presión Máxima:1015.400 Hpa    Presión Mínima:1009.900 Hpa


Volver